createdAt,value
2023-04-02T00:01:36.927Z,100.00
2023-04-02T00:04:23.882Z,100.00
2023-04-02T00:07:33.227Z,100.00
2023-04-02T00:10:27.502Z,100.00
2023-04-02T00:13:16.780Z,100.00
2023-04-02T00:16:06.850Z,100.00
2023-04-02T00:18:57.958Z,100.00
2023-04-02T00:21:46.457Z,100.00
2023-04-02T00:24:33.740Z,100.00
2023-04-02T00:27:20.872Z,100.00
2023-04-02T00:30:08.755Z,100.00
2023-04-02T00:32:55.926Z,100.00
2023-04-02T00:35:43.041Z,100.00
2023-04-02T00:38:34.469Z,100.00
2023-04-02T00:41:27.243Z,100.00
2023-04-02T00:44:21.778Z,100.00
2023-04-02T00:47:24.762Z,100.00
2023-04-02T00:50:15.510Z,100.00
2023-04-02T00:53:12.780Z,100.00
2023-04-02T00:56:00.933Z,100.00
2023-04-02T00:58:53.169Z,100.00
2023-04-02T01:01:42.716Z,100.00
2023-04-02T01:04:36.516Z,100.00
2023-04-02T01:07:47.585Z,100.00
2023-04-02T01:10:46.217Z,100.00
2023-04-02T01:14:06.790Z,100.00
2023-04-02T01:17:35.076Z,100.00
2023-04-02T01:20:25.390Z,100.00
2023-04-02T01:23:19.656Z,100.00
2023-04-02T01:26:35.069Z,100.00
2023-04-02T01:29:27.766Z,100.00
2023-04-02T01:32:18.067Z,100.00
2023-04-02T01:35:05.227Z,100.00
2023-04-02T01:38:03.155Z,100.00
2023-04-02T01:40:55.919Z,100.00
2023-04-02T01:43:51.902Z,100.00
2023-04-02T01:46:42.491Z,100.00
2023-04-02T01:49:28.996Z,100.00
2023-04-02T01:52:25.596Z,100.00
2023-04-02T01:55:15.211Z,100.00
2023-04-02T01:58:03.878Z,100.00
2023-04-02T02:00:56.471Z,100.00
2023-04-02T02:03:44.863Z,100.00
2023-04-02T02:06:32.528Z,100.00
2023-04-02T02:09:26.111Z,100.00
2023-04-02T02:12:14.960Z,100.00
2023-04-02T02:15:02.415Z,100.00
2023-04-02T02:17:50.327Z,100.00
2023-04-02T02:20:37.083Z,100.00
2023-04-02T02:23:23.668Z,100.00
2023-04-02T02:26:13.137Z,100.00
2023-04-02T02:29:06.876Z,100.00
2023-04-02T02:31:56.150Z,100.00
2023-04-02T02:34:54.366Z,100.00
2023-04-02T02:37:46.468Z,100.00
2023-04-02T02:40:43.529Z,100.00
2023-04-02T02:43:32.654Z,100.00
2023-04-02T02:46:23.672Z,100.00
2023-04-02T02:49:16.831Z,100.00
2023-04-02T02:52:03.468Z,100.00
2023-04-02T02:55:02.309Z,100.00
2023-04-02T02:58:06.799Z,100.00
2023-04-02T03:01:00.618Z,100.00
2023-04-02T03:03:52.412Z,100.00
2023-04-02T03:06:40.808Z,100.00
2023-04-02T03:09:54.420Z,100.00
2023-04-02T03:12:56.283Z,100.00
2023-04-02T03:16:11.402Z,100.00
2023-04-02T03:19:30.750Z,100.00
2023-04-02T03:22:35.399Z,100.00
2023-04-02T03:25:33.478Z,100.00
2023-04-02T03:28:26.111Z,100.00
2023-04-02T03:31:27.923Z,100.00
2023-04-02T03:34:28.390Z,100.00
2023-04-02T03:37:26.044Z,100.00
2023-04-02T03:40:21.935Z,100.00
2023-04-02T03:43:23.997Z,100.00
2023-04-02T03:46:27.167Z,100.00
2023-04-02T03:49:41.339Z,100.00
2023-04-02T03:52:29.405Z,100.00
2023-04-02T03:55:29.265Z,100.00
2023-04-02T03:58:26.728Z,100.00
2023-04-02T04:01:35.495Z,100.00
2023-04-02T04:04:27.403Z,100.00
2023-04-02T04:07:38.721Z,100.00
2023-04-02T04:10:27.602Z,100.00
2023-04-02T04:13:18.513Z,100.00
2023-04-02T04:16:09.891Z,100.00
2023-04-02T04:19:23.314Z,100.00
2023-04-02T04:22:30.495Z,100.00
2023-04-02T04:25:29.901Z,100.00
2023-04-02T04:28:29.237Z,100.00
2023-04-02T04:31:26.082Z,100.00
2023-04-02T04:34:46.719Z,100.00
2023-04-02T04:37:40.127Z,100.00
2023-04-02T04:40:50.373Z,100.00
2023-04-02T04:43:54.182Z,100.00
2023-04-02T04:46:47.194Z,100.00
2023-04-02T04:49:52.080Z,100.00
2023-04-02T04:52:41.202Z,100.00
2023-04-02T04:55:43.601Z,100.00
2023-04-02T04:58:42.177Z,100.00
2023-04-02T05:01:52.478Z,100.00
2023-04-02T05:04:44.623Z,100.00
2023-04-02T05:07:49.095Z,100.00
2023-04-02T05:10:54.971Z,100.00
2023-04-02T05:14:07.750Z,100.00
2023-04-02T05:17:04.563Z,100.00
2023-04-02T05:20:16.303Z,100.00
2023-04-02T05:23:30.857Z,100.00
2023-04-02T05:26:28.363Z,100.00
2023-04-02T05:29:22.399Z,100.00
2023-04-02T05:32:15.979Z,100.00
2023-04-02T05:35:07.311Z,100.00
2023-04-02T05:37:56.549Z,100.00
2023-04-02T05:40:47.934Z,100.00
2023-04-02T05:43:39.137Z,100.00
2023-04-02T05:46:30.792Z,100.00
2023-04-02T05:49:26.791Z,100.00
2023-04-02T05:52:24.909Z,100.00
2023-04-02T05:55:12.560Z,100.00
2023-04-02T05:58:34.460Z,100.00
2023-04-02T06:01:33.710Z,100.00
2023-04-02T06:04:29.774Z,100.00
2023-04-02T06:07:24.025Z,100.00
2023-04-02T06:10:25.071Z,100.00
2023-04-02T06:13:19.385Z,100.00
2023-04-02T06:16:06.845Z,100.00
2023-04-02T06:18:55.024Z,100.00
2023-04-02T06:21:46.294Z,100.00
2023-04-02T06:24:37.340Z,100.00
2023-04-02T06:27:26.437Z,100.00
2023-04-02T06:30:21.415Z,100.00
2023-04-02T06:33:15.526Z,100.00
2023-04-02T06:36:06.919Z,100.00
2023-04-02T06:38:59.124Z,100.00
2023-04-02T06:41:46.711Z,100.00
2023-04-02T06:44:52.567Z,100.00
2023-04-02T06:48:01.566Z,100.00
2023-04-02T06:51:07.174Z,100.00
2023-04-02T06:53:55.177Z,100.00
2023-04-02T06:56:47.846Z,100.00
2023-04-02T06:59:40.077Z,100.00
2023-04-02T07:02:36.778Z,100.00
2023-04-02T07:05:25.089Z,100.00
2023-04-02T07:08:13.684Z,100.00
2023-04-02T07:11:00.722Z,100.00
2023-04-02T07:13:49.497Z,100.00
2023-04-02T07:16:36.877Z,100.00
2023-04-02T07:19:23.782Z,100.00
2023-04-02T07:22:19.513Z,100.00
2023-04-02T07:25:10.867Z,100.00
2023-04-02T07:27:57.314Z,100.00
2023-04-02T07:30:44.370Z,100.00
2023-04-02T07:33:31.443Z,100.00
2023-04-02T07:36:23.534Z,100.00
2023-04-02T07:39:10.662Z,100.00
2023-04-02T07:41:59.169Z,100.00
2023-04-02T07:44:45.768Z,100.00
2023-04-02T07:47:32.506Z,100.00
2023-04-02T07:50:19.329Z,100.00
2023-04-02T07:53:07.124Z,100.00
2023-04-02T07:55:53.879Z,100.00
2023-04-02T07:58:42.369Z,100.00
2023-04-02T08:01:29.526Z,100.00
2023-04-02T08:04:18.728Z,100.00
2023-04-02T08:07:05.734Z,100.00
2023-04-02T08:09:52.213Z,100.00
2023-04-02T08:12:38.799Z,100.00
2023-04-02T08:15:25.112Z,100.00
2023-04-02T08:18:12.205Z,100.00
2023-04-02T08:20:59.888Z,100.00
2023-04-02T08:23:46.354Z,99.44
2023-04-02T08:26:33.059Z,99.16
2023-04-02T08:29:20.452Z,97.24
2023-04-02T08:32:07.519Z,98.39
2023-04-02T08:34:53.919Z,96.58
2023-04-02T08:37:41.894Z,97.05
2023-04-02T08:40:39.100Z,94.98
2023-04-02T08:43:44.479Z,93.41
2023-04-02T08:46:37.579Z,90.95
2023-04-02T08:49:36.963Z,88.66
2023-04-02T08:52:31.356Z,89.52
2023-04-02T08:55:35.025Z,87.68
2023-04-02T08:58:41.894Z,86.99
2023-04-02T09:01:48.914Z,85.66
2023-04-02T09:04:36.960Z,84.54
2023-04-02T09:07:24.413Z,84.10
2023-04-02T09:10:16.445Z,83.45
2023-04-02T09:13:06.580Z,82.88
2023-04-02T09:16:01.377Z,81.53
2023-04-02T09:18:50.231Z,82.11
2023-04-02T09:21:43.980Z,79.17
2023-04-02T09:24:30.344Z,79.16
2023-04-02T09:27:29.946Z,80.32
2023-04-02T09:30:31.946Z,81.78
2023-04-02T09:33:19.354Z,79.05
2023-04-02T09:36:06.378Z,77.69
2023-04-02T09:39:20.829Z,79.78
2023-04-02T09:42:28.110Z,78.29
2023-04-02T09:45:21.464Z,76.65
2023-04-02T09:48:27.556Z,75.61
2023-04-02T09:51:18.368Z,74.47
2023-04-02T09:54:04.994Z,73.63
2023-04-02T09:57:03.681Z,74.38
2023-04-02T10:00:25.166Z,71.55
2023-04-02T10:03:25.681Z,69.88
2023-04-02T10:06:16.428Z,69.88
2023-04-02T10:09:33.658Z,70.89
2023-04-02T10:12:20.433Z,71.10
2023-04-02T10:15:14.377Z,68.73
2023-04-02T10:18:13.483Z,67.84
2023-04-02T10:21:03.413Z,68.90
2023-04-02T10:23:50.082Z,68.51
2023-04-02T10:26:48.436Z,68.07
2023-04-02T10:30:02.580Z,70.37
2023-04-02T10:33:06.046Z,67.39
2023-04-02T10:36:17.750Z,67.72
2023-04-02T10:39:15.925Z,68.19
2023-04-02T10:42:18.984Z,68.04
2023-04-02T10:45:18.733Z,63.90
2023-04-02T10:48:24.463Z,65.55
2023-04-02T10:51:25.155Z,64.70
2023-04-02T10:54:37.925Z,62.91
2023-04-02T10:57:33.683Z,65.35
2023-04-02T11:00:34.999Z,66.81
2023-04-02T11:03:54.892Z,67.96
2023-04-02T11:06:48.953Z,66.99
2023-04-02T11:09:41.341Z,66.88
2023-04-02T11:12:34.018Z,66.24
2023-04-02T11:15:22.320Z,65.30
2023-04-02T11:18:29.189Z,64.74
2023-04-02T11:21:58.537Z,64.84
2023-04-02T11:24:55.104Z,64.53
2023-04-02T11:27:42.663Z,64.38
2023-04-02T11:30:30.258Z,64.45
2023-04-02T11:33:44.233Z,63.79
2023-04-02T11:36:50.136Z,62.74
2023-04-02T11:39:59.219Z,58.64
2023-04-02T11:42:46.600Z,60.68
2023-04-02T11:45:52.995Z,59.64
2023-04-02T11:48:40.885Z,59.78
2023-04-02T11:51:30.842Z,58.34
2023-04-02T11:54:28.517Z,61.07
2023-04-02T11:57:33.694Z,60.92
2023-04-02T12:00:31.808Z,58.92
2023-04-02T12:03:29.804Z,63.00
2023-04-02T12:06:52.441Z,65.21
2023-04-02T12:09:44.750Z,67.71
2023-04-02T12:12:39.091Z,70.50
2023-04-02T12:15:45.347Z,71.07
2023-04-02T12:18:33.266Z,72.26
2023-04-02T12:21:25.812Z,73.94
2023-04-02T12:24:19.648Z,74.18
2023-04-02T12:27:27.555Z,74.58
2023-04-02T12:30:20.840Z,76.18
2023-04-02T12:33:19.665Z,77.20
2023-04-02T12:36:18.077Z,76.74
2023-04-02T12:39:04.678Z,76.77
2023-04-02T12:41:51.359Z,77.76
2023-04-02T12:44:38.027Z,78.81
2023-04-02T12:47:25.246Z,77.64
2023-04-02T12:50:15.434Z,77.82
2023-04-02T12:53:02.086Z,88.23
2023-04-02T12:55:51.523Z,96.35
2023-04-02T12:58:41.440Z,100.00
2023-04-02T13:01:31.536Z,100.00
2023-04-02T13:04:18.478Z,100.00
2023-04-02T13:07:05.201Z,100.00
2023-04-02T13:09:54.427Z,100.00
2023-04-02T13:12:41.577Z,100.00
2023-04-02T13:15:31.531Z,100.00
2023-04-02T13:18:23.003Z,100.00
2023-04-02T13:21:24.046Z,100.00
2023-04-02T13:24:21.547Z,100.00
2023-04-02T13:27:10.628Z,100.00
2023-04-02T13:30:08.243Z,100.00
2023-04-02T13:32:55.103Z,100.00
2023-04-02T13:35:42.402Z,100.00
2023-04-02T13:38:28.966Z,100.00
2023-04-02T13:41:26.301Z,100.00
2023-04-02T13:44:27.636Z,100.00
2023-04-02T13:47:14.803Z,100.00
2023-04-02T13:50:01.413Z,100.00
2023-04-02T13:52:50.667Z,100.00
2023-04-02T13:55:40.622Z,100.00
2023-04-02T13:58:27.079Z,100.00
2023-04-02T14:01:14.391Z,100.00
2023-04-02T14:04:02.418Z,100.00
2023-04-02T14:07:07.849Z,100.00
2023-04-02T14:10:04.311Z,100.00
2023-04-02T14:13:18.510Z,100.00
2023-04-02T14:16:32.379Z,100.00
2023-04-02T14:19:54.174Z,100.00
2023-04-02T14:22:59.224Z,100.00
2023-04-02T14:25:54.804Z,100.00
2023-04-02T14:28:47.405Z,100.00
2023-04-02T14:31:38.752Z,100.00
2023-04-02T14:34:36.203Z,100.00
2023-04-02T14:37:32.615Z,100.00
2023-04-02T14:40:40.077Z,100.00
2023-04-02T14:43:32.603Z,100.00
2023-04-02T14:46:19.180Z,100.00
2023-04-02T14:49:16.623Z,100.00
2023-04-02T14:52:05.038Z,100.00
2023-04-02T14:55:04.261Z,100.00
2023-04-02T14:57:54.610Z,100.00
2023-04-02T15:01:07.970Z,100.00
2023-04-02T15:04:02.382Z,100.00
2023-04-02T15:06:52.756Z,100.00
2023-04-02T15:09:44.988Z,100.00
2023-04-02T15:12:36.106Z,100.00
2023-04-02T15:15:40.624Z,100.00
2023-04-02T15:18:30.317Z,100.00
2023-04-02T15:21:29.743Z,100.00
2023-04-02T15:24:26.069Z,100.00
2023-04-02T15:27:37.677Z,100.00
2023-04-02T15:30:35.382Z,100.00
2023-04-02T15:33:28.252Z,100.00
2023-04-02T15:36:29.639Z,100.00
2023-04-02T15:39:28.134Z,100.00
2023-04-02T15:42:19.896Z,100.00
2023-04-02T15:45:12.443Z,100.00
2023-04-02T15:48:15.709Z,100.00
2023-04-02T15:51:05.066Z,100.00
2023-04-02T15:54:26.968Z,100.00
2023-04-02T15:57:51.281Z,100.00
2023-04-02T16:01:11.568Z,100.00
2023-04-02T16:04:19.919Z,100.00
2023-04-02T16:07:24.033Z,100.00
2023-04-02T16:10:30.314Z,100.00
2023-04-02T16:13:30.868Z,100.00
2023-04-02T16:16:33.935Z,100.00
2023-04-02T16:19:33.069Z,100.00
2023-04-02T16:22:33.245Z,100.00
2023-04-02T16:25:23.872Z,100.00
2023-04-02T16:28:28.349Z,100.00
2023-04-02T16:31:41.502Z,100.00
2023-04-02T16:34:38.718Z,100.00
2023-04-02T16:37:52.576Z,100.00
2023-04-02T16:41:08.765Z,100.00
2023-04-02T16:44:07.622Z,100.00
2023-04-02T16:47:02.966Z,100.00
2023-04-02T16:50:24.313Z,100.00
2023-04-02T16:53:24.530Z,100.00
2023-04-02T16:56:23.288Z,100.00
2023-04-02T16:59:19.387Z,100.00
2023-04-02T17:02:45.553Z,100.00
2023-04-02T17:05:50.629Z,100.00
2023-04-02T17:08:43.139Z,100.00
2023-04-02T17:11:42.801Z,100.00
2023-04-02T17:15:01.379Z,100.00
2023-04-02T17:17:47.730Z,100.00
2023-04-02T17:20:34.565Z,100.00
2023-04-02T17:23:21.136Z,100.00
2023-04-02T17:26:09.229Z,100.00
2023-04-02T17:28:58.902Z,100.00
2023-04-02T17:31:46.407Z,100.00
2023-04-02T17:34:33.084Z,100.00
2023-04-02T17:37:44.339Z,100.00
2023-04-02T17:40:47.977Z,100.00
2023-04-02T17:44:05.879Z,100.00
2023-04-02T17:47:19.450Z,100.00
2023-04-02T17:50:12.406Z,100.00
2023-04-02T17:53:08.293Z,100.00
2023-04-02T17:56:23.699Z,100.00
2023-04-02T17:59:23.606Z,100.00
2023-04-02T18:02:38.914Z,100.00
2023-04-02T18:05:35.361Z,100.00
2023-04-02T18:08:36.329Z,100.00
2023-04-02T18:11:26.288Z,100.00
2023-04-02T18:14:43.588Z,100.00
2023-04-02T18:17:46.051Z,100.00
2023-04-02T18:20:43.208Z,100.00
2023-04-02T18:23:56.606Z,100.00
2023-04-02T18:26:55.418Z,100.00
2023-04-02T18:29:57.594Z,100.00
2023-04-02T18:33:28.576Z,99.84
2023-04-02T18:36:33.513Z,100.00
2023-04-02T18:39:43.437Z,100.00
2023-04-02T18:42:48.206Z,98.88
2023-04-02T18:45:53.191Z,97.60
2023-04-02T18:49:06.387Z,97.73
2023-04-02T18:51:58.788Z,98.55
2023-04-02T18:54:53.485Z,98.06
2023-04-02T18:57:42.277Z,96.30
2023-04-02T19:00:33.669Z,97.24
2023-04-02T19:03:29.044Z,96.87
2023-04-02T19:06:21.151Z,94.56
2023-04-02T19:09:25.414Z,95.38
2023-04-02T19:12:18.985Z,93.19
2023-04-02T19:15:16.378Z,92.39
2023-04-02T19:18:17.996Z,92.04
2023-04-02T19:21:19.065Z,91.90
2023-04-02T19:24:17.638Z,90.44
2023-04-02T19:27:22.352Z,90.31
2023-04-02T19:30:43.071Z,90.89
2023-04-02T19:33:48.412Z,89.95
2023-04-02T19:36:56.176Z,90.86
2023-04-02T19:40:19.544Z,90.64
2023-04-02T19:43:08.576Z,90.47
2023-04-02T19:45:55.522Z,90.14
2023-04-02T19:49:03.504Z,90.38
2023-04-02T19:51:50.796Z,89.48
2023-04-02T19:54:38.328Z,90.68
2023-04-02T19:57:24.889Z,90.05
2023-04-02T20:00:14.108Z,90.25
2023-04-02T20:03:00.828Z,89.22
2023-04-02T20:05:47.884Z,89.95
2023-04-02T20:08:36.275Z,90.28
2023-04-02T20:11:22.672Z,89.60
2023-04-02T20:14:08.979Z,89.72
2023-04-02T20:16:55.701Z,89.31
2023-04-02T20:19:42.003Z,88.76
2023-04-02T20:22:28.349Z,88.27
2023-04-02T20:25:15.006Z,87.95
2023-04-02T20:28:03.742Z,88.96
2023-04-02T20:30:51.107Z,88.89
2023-04-02T20:33:38.012Z,89.14
2023-04-02T20:36:24.888Z,87.92
2023-04-02T20:39:17.804Z,88.76
2023-04-02T20:42:04.236Z,89.72
2023-04-02T20:44:50.811Z,88.78
2023-04-02T20:47:37.141Z,87.89
2023-04-02T20:50:24.024Z,86.29
2023-04-02T20:53:10.549Z,83.80
2023-04-02T20:56:15.710Z,83.88
2023-04-02T20:59:02.066Z,82.81
2023-04-02T21:01:48.614Z,82.83
2023-04-02T21:04:35.182Z,81.48
2023-04-02T21:07:21.471Z,82.55
2023-04-02T21:10:08.010Z,82.34
2023-04-02T21:12:54.493Z,82.01
2023-04-02T21:15:43.177Z,82.89
2023-04-02T21:18:30.030Z,81.42
2023-04-02T21:21:17.831Z,81.25
2023-04-02T21:24:06.644Z,80.71
2023-04-02T21:26:52.961Z,81.15
2023-04-02T21:29:39.181Z,82.21
2023-04-02T21:32:27.212Z,81.95
2023-04-02T21:35:13.827Z,81.36
2023-04-02T21:38:00.093Z,81.25
2023-04-02T21:40:46.591Z,80.54
2023-04-02T21:43:33.128Z,81.12
2023-04-02T21:46:22.110Z,82.23
2023-04-02T21:49:10.618Z,80.23
2023-04-02T21:51:57.303Z,80.16
2023-04-02T21:54:43.790Z,80.74
2023-04-02T21:57:30.342Z,81.18
2023-04-02T22:00:17.505Z,80.70
2023-04-02T22:03:04.283Z,81.14
2023-04-02T22:06:00.910Z,80.87
2023-04-02T22:08:54.650Z,81.05
2023-04-02T22:11:47.630Z,81.65
2023-04-02T22:14:34.282Z,82.28
2023-04-02T22:17:21.824Z,81.47
2023-04-02T22:20:09.153Z,81.76
2023-04-02T22:22:56.516Z,81.38
2023-04-02T22:25:43.172Z,82.52
2023-04-02T22:28:29.749Z,81.55
2023-04-02T22:31:19.743Z,82.03
2023-04-02T22:34:07.414Z,80.49
2023-04-02T22:36:53.683Z,81.50
2023-04-02T22:39:40.014Z,81.52
2023-04-02T22:42:27.360Z,81.16
2023-04-02T22:45:15.652Z,81.94
2023-04-02T22:48:02.169Z,82.11
2023-04-02T22:50:55.362Z,81.79
2023-04-02T22:53:42.943Z,81.00
2023-04-02T22:56:32.139Z,79.44
2023-04-02T22:59:19.082Z,80.13
2023-04-02T23:02:05.817Z,81.23
2023-04-02T23:04:52.384Z,81.76
2023-04-02T23:07:38.509Z,82.23
2023-04-02T23:10:29.001Z,81.76
2023-04-02T23:13:20.002Z,82.00
2023-04-02T23:16:09.992Z,81.33
2023-04-02T23:18:57.275Z,82.67
2023-04-02T23:21:45.821Z,82.12
2023-04-02T23:24:32.408Z,82.10
2023-04-02T23:27:18.968Z,82.56
2023-04-02T23:30:06.510Z,82.40
2023-04-02T23:32:53.079Z,82.63
2023-04-02T23:35:39.502Z,82.83
2023-04-02T23:38:27.294Z,83.29
2023-04-02T23:41:15.341Z,84.97
2023-04-02T23:44:02.026Z,84.93
2023-04-02T23:46:48.521Z,85.56
2023-04-02T23:49:34.748Z,85.48
2023-04-02T23:52:24.107Z,85.65
2023-04-02T23:55:12.133Z,84.66
2023-04-02T23:57:58.413Z,84.99
